CMB weather

Bandaranaike International Colombo Airport
Colombo, Western Province, Sri Lanka

Public forecast

Using degrees Celsius for public forecast. Weather courtesy of forecast.io.

METAR (pilot weather report)

Retrieved 2017/11/17 22:10 UTC (0 seconds ago):

VCBI 172210Z 09003KT 050V130 6000 SCT017 26/23 Q1008 NOSIG

TAF (pilot weather forecast)

Forecast is more than 12 hours old.

Retrieved 2017/11/16 06:00 UTC (2 days ago):

TAF VCBI 160340Z 1606/1712 25010KT 9999 FEW018 TX31/1607Z TN25/1700Z BECMG 1616/1618 VRB05KT TEMPO 1623/1703 5000 BR